createdAt,value
2022-09-03T00:00:54.734Z,100970.34
2022-09-03T00:06:03.490Z,100997.16
2022-09-03T00:11:14.456Z,100960.94
2022-09-03T00:16:27.440Z,100984.50
2022-09-03T00:21:36.863Z,101040.84
2022-09-03T00:26:42.819Z,100976.25
2022-09-03T00:32:00.581Z,101052.94
2022-09-03T00:37:00.707Z,101036.47
2022-09-03T00:42:15.384Z,101086.22
2022-09-03T00:47:22.604Z,101050.56
2022-09-03T00:52:36.859Z,100979.53
2022-09-03T00:57:47.930Z,101062.63
2022-09-03T01:02:58.834Z,101010.78
2022-09-03T01:08:08.193Z,100967.56
2022-09-03T01:13:13.138Z,101008.78
2022-09-03T01:18:24.806Z,101028.00
2022-09-03T01:23:57.346Z,101081.13
2022-09-03T01:29:07.015Z,100995.66
2022-09-03T01:34:16.705Z,101048.25
2022-09-03T01:39:32.563Z,101021.34
2022-09-03T01:44:58.042Z,101076.91
2022-09-03T01:50:07.147Z,101073.50
2022-09-03T01:55:25.071Z,101031.94
2022-09-03T02:00:27.912Z,101004.78
2022-09-03T02:05:29.790Z,100997.59
2022-09-03T02:10:36.261Z,101006.16
2022-09-03T02:15:49.687Z,100997.16
2022-09-03T02:20:52.316Z,101097.63
2022-09-03T02:25:56.149Z,101024.53
2022-09-03T02:30:57.113Z,101087.34
2022-09-03T02:36:09.636Z,101068.34
2022-09-03T02:41:23.810Z,101002.03
2022-09-03T02:46:33.821Z,101074.16
2022-09-03T02:51:51.505Z,100996.53
2022-09-03T02:56:52.880Z,101038.22
2022-09-03T03:01:51.154Z,101071.41
2022-09-03T03:07:25.823Z,101094.44
2022-09-03T03:12:24.764Z,100997.78
2022-09-03T03:17:27.942Z,101017.63
2022-09-03T03:22:49.799Z,101089.13
2022-09-03T03:28:03.978Z,101135.81
2022-09-03T03:33:55.906Z,101022.38
2022-09-03T04:45:11.445Z,101043.06
2022-09-03T04:51:13.577Z,101060.88
2022-09-03T04:57:55.142Z,101069.72
2022-09-03T05:04:02.504Z,101083.16
2022-09-03T05:10:36.521Z,101181.56
2022-09-03T05:15:58.138Z,101206.97
2022-09-03T05:27:34.760Z,101151.19
2022-09-03T05:33:09.546Z,101131.03
2022-09-03T05:38:39.576Z,101182.00
2022-09-03T05:43:55.656Z,101221.53
2022-09-03T05:54:48.183Z,101220.09
2022-09-03T06:00:19.581Z,101113.81
2022-09-03T06:05:44.778Z,101235.91
2022-09-03T06:11:02.806Z,101240.25
2022-09-03T06:16:41.224Z,101221.03
2022-09-03T06:22:10.924Z,101220.63
2022-09-03T06:27:59.526Z,101267.84
2022-09-03T06:33:22.501Z,101139.81
2022-09-03T06:38:42.368Z,101149.06
2022-09-03T06:49:43.024Z,101211.75
2022-09-03T06:54:56.554Z,101125.97
2022-09-03T07:00:09.200Z,101159.91
2022-09-03T07:11:13.460Z,101189.44
2022-09-03T07:17:14.660Z,101198.25
2022-09-03T07:35:45.553Z,101177.94
2022-09-03T07:42:00.439Z,101253.97
2022-09-03T07:54:46.819Z,101250.50
2022-09-03T09:53:01.440Z,101251.38
2022-09-03T12:09:51.036Z,101383.91
2022-09-03T12:15:01.931Z,101397.59
2022-09-03T12:20:15.391Z,101412.50
2022-09-03T12:25:15.130Z,101421.38
2022-09-03T12:30:17.813Z,101444.00
2022-09-03T12:46:37.355Z,101446.63
2022-09-03T12:52:03.157Z,101426.16
2022-09-03T12:57:08.607Z,101411.72
2022-09-03T13:02:20.698Z,101450.91
2022-09-03T13:07:44.714Z,101418.31
2022-09-03T13:13:29.382Z,101452.53
2022-09-03T13:18:34.728Z,101448.22
2022-09-03T13:23:48.122Z,101447.66
2022-09-03T13:29:30.251Z,101379.16
2022-09-03T13:35:18.525Z,101448.22
2022-09-03T13:40:23.671Z,101406.69
2022-09-03T13:45:32.488Z,101425.47
2022-09-03T13:51:05.350Z,101456.91
2022-09-03T13:56:17.281Z,101381.31
2022-09-03T14:01:23.137Z,101422.09
2022-09-03T14:06:51.338Z,101434.66
2022-09-03T14:12:05.683Z,101429.38
2022-09-03T14:17:15.238Z,101355.44
2022-09-03T14:22:19.338Z,101394.03
2022-09-03T14:27:34.371Z,101442.97
2022-09-03T14:32:56.389Z,101458.50
2022-09-03T14:38:45.962Z,101454.06
2022-09-03T14:44:16.698Z,101464.28
2022-09-03T14:49:32.823Z,101438.31
2022-09-03T14:54:59.905Z,101474.34
2022-09-03T15:00:05.386Z,101480.63
2022-09-03T15:05:52.429Z,101373.66
2022-09-03T15:10:56.786Z,101485.41
2022-09-03T15:16:17.686Z,101448.19
2022-09-03T15:21:26.602Z,101489.88
2022-09-03T15:27:11.621Z,101494.97
2022-09-03T15:32:47.020Z,101440.28
2022-09-03T15:38:20.262Z,101486.13
2022-09-03T15:43:24.233Z,101467.47
2022-09-03T15:48:31.453Z,101488.91
2022-09-03T15:54:05.593Z,101477.19
2022-09-03T15:59:12.355Z,101483.28
2022-09-03T16:04:22.334Z,101506.63
2022-09-03T16:09:29.977Z,101480.78
2022-09-03T16:14:38.914Z,101499.66
2022-09-03T16:19:48.167Z,101495.03
2022-09-03T16:24:51.075Z,101512.88
2022-09-03T16:30:09.077Z,101550.44
2022-09-03T16:35:22.879Z,101481.16
2022-09-03T16:40:29.009Z,101491.94
2022-09-03T16:45:35.333Z,101490.00
2022-09-03T16:50:56.643Z,101534.66
2022-09-03T16:56:13.440Z,101460.91
2022-09-03T17:01:22.129Z,101565.16
2022-09-03T17:06:35.523Z,101558.09
2022-09-03T17:12:14.909Z,101543.84
2022-09-03T17:17:32.614Z,101574.44
2022-09-03T17:23:06.402Z,101574.16
2022-09-03T17:28:25.082Z,101586.78
2022-09-03T17:33:54.953Z,101512.38
2022-09-03T17:39:24.017Z,101577.06
2022-09-03T17:44:53.167Z,101567.56
2022-09-03T17:49:55.738Z,101522.19
2022-09-03T17:54:57.301Z,101578.25
2022-09-03T18:00:26.827Z,101528.50
2022-09-03T18:05:44.432Z,101543.16
2022-09-03T18:10:50.302Z,101618.88
2022-09-03T18:15:53.700Z,101625.91
2022-09-03T18:21:31.776Z,101602.38
2022-09-03T18:26:55.361Z,101567.13
2022-09-03T18:32:10.611Z,101573.16
2022-09-03T18:37:26.884Z,101619.25
2022-09-03T18:42:56.075Z,101617.25
2022-09-03T18:48:22.349Z,101642.03
2022-09-03T18:53:51.245Z,101600.50
2022-09-03T18:59:25.236Z,101600.56
2022-09-03T19:04:54.089Z,101657.03
2022-09-03T19:10:20.084Z,101584.94
2022-09-03T19:15:41.906Z,101616.16
2022-09-03T19:21:16.565Z,101606.81
2022-09-03T19:26:41.951Z,101640.94
2022-09-03T19:32:03.268Z,101654.22
2022-09-03T19:37:26.548Z,101629.69
2022-09-03T19:42:58.517Z,101621.25
2022-09-03T19:48:28.799Z,101666.50
2022-09-03T19:53:45.895Z,101653.69
2022-09-03T19:59:07.975Z,101608.69
2022-09-03T20:04:30.921Z,101652.00
2022-09-03T20:09:50.284Z,101676.41
2022-09-03T20:14:48.622Z,101694.28
2022-09-03T20:20:00.091Z,101694.47
2022-09-03T20:25:20.701Z,101618.34
2022-09-03T20:30:20.546Z,101643.81
2022-09-03T20:35:33.252Z,101672.81
2022-09-03T20:40:42.728Z,101644.31
2022-09-03T20:45:58.422Z,101685.59
2022-09-03T20:51:07.371Z,101710.78
2022-09-03T20:56:16.071Z,101637.69
2022-09-03T21:01:22.843Z,101694.88
2022-09-03T21:06:30.814Z,101697.03
2022-09-03T21:11:35.434Z,101673.97
2022-09-03T21:16:44.121Z,101637.69
2022-09-03T21:21:54.117Z,101650.28
2022-09-03T21:26:56.968Z,101687.00
2022-09-03T21:32:03.871Z,101683.97
2022-09-03T21:37:04.158Z,101682.38
2022-09-03T21:42:06.500Z,101695.66
2022-09-03T21:47:08.925Z,101709.75
2022-09-03T21:52:11.937Z,101709.00
2022-09-03T21:57:22.275Z,101717.63
2022-09-03T22:02:26.649Z,101685.47
2022-09-03T22:07:37.400Z,101672.13
2022-09-03T22:12:42.518Z,101710.16
2022-09-03T22:17:48.018Z,101707.75
2022-09-03T22:22:55.914Z,101704.56
2022-09-03T22:28:00.975Z,101644.97
2022-09-03T22:33:06.781Z,101687.22
2022-09-03T22:38:26.348Z,101718.78
2022-09-03T22:43:38.993Z,101717.97
2022-09-03T22:49:11.327Z,101716.94
2022-09-03T22:54:24.284Z,101705.78
2022-09-03T22:59:28.150Z,101706.66
2022-09-03T23:04:30.019Z,101670.75
2022-09-03T23:09:37.798Z,101675.63
2022-09-03T23:14:48.153Z,101661.56
2022-09-03T23:19:49.741Z,101679.88
2022-09-03T23:24:54.266Z,101679.72
2022-09-03T23:29:57.211Z,101690.59
2022-09-03T23:34:55.507Z,101665.31
2022-09-03T23:40:13.469Z,101673.72
2022-09-03T23:45:21.669Z,101680.66
2022-09-03T23:50:28.988Z,101693.38
2022-09-03T23:55:41.782Z,101695.28
